»·PEaware :: N4443X KLAX-KSAN

N4443X :: KLAX-KSAN

FLIGHT INFORMATION

Flight Status: Arrived
Operator: Privately registered:
United States
More flights under this callsign
Pilot: Doug H. (19585)
Aircraft: PIPER PA-28R-201 ARROW
(P28R)
More flights by this aircraft type
Origin: KLAX Los Angeles Intl
United States
Destination: KSAN San Diego Intl-Lindbergh
United States
More flights between these airports :: More routes between these airports
Route: +
File this flight plan on PilotEdge
Remarks: cat9
Altitude:
(Current/Filed)
5,500ft
Speed:
(Current/Filed)
0kts
Departed: 06-Jan-20 09:23 PM
Arrived: 06-Jan-20 10:53 PM
Distance/Time
Traveled:
95nm/1:29
Distance/Time
To Go:
Arrived

Flight Plot

Page will automatically refresh every two minutes.


Map Options




Map Legend


Flown Route
Filed Route
Departure Airport
Arrival Airport
Navaid (VOR, NDB)
Fix

Horizontal Profiles

Position Reports

Time Latitude Longitude Heading Altitude Ground
Speed
06-Jan-20 21:12 33.932657 -118.399145 83 128ft 0kts
06-Jan-20 21:13 33.932657 -118.399145 83 128ft 0kts
06-Jan-20 21:14 33.932657 -118.399145 83 128ft 0kts
06-Jan-20 21:15 33.932659 -118.399130 78 128ft 2kts
06-Jan-20 21:16 33.934544 -118.398053 60 128ft 12kts
06-Jan-20 21:17 33.935109 -118.392860 82 128ft 18kts
06-Jan-20 21:18 33.935725 -118.386618 84 128ft 19kts
06-Jan-20 21:19 33.936423 -118.382844 10 128ft 0kts
06-Jan-20 21:20 33.936423 -118.382844 10 128ft 0kts
06-Jan-20 21:21 33.936464 -118.382836 8 128ft 1kts
06-Jan-20 21:22 33.935611 -118.398323 262 341ft 89kts
06-Jan-20 21:23 33.931447 -118.429857 269 935ft 101kts
06-Jan-20 21:24 33.910201 -118.440445 173 1589ft 102kts
06-Jan-20 21:25 33.881969 -118.436171 169 2301ft 103kts
06-Jan-20 21:26 33.854982 -118.425461 148 2976ft 104kts
06-Jan-20 21:27 33.832392 -118.404252 137 3719ft 104kts
06-Jan-20 21:28 33.811111 -118.380448 139 4522ft 104kts
06-Jan-20 21:29 33.789675 -118.356445 139 5202ft 113kts
06-Jan-20 21:30 33.932658 -118.399139 83 128ft 0kts
06-Jan-20 21:31 33.932658 -118.399138 83 128ft 0kts
06-Jan-20 21:32 33.932658 -118.399138 83 128ft 0kts
06-Jan-20 21:33 33.932658 -118.399138 83 128ft 0kts
06-Jan-20 21:34 33.932658 -118.399138 83 128ft 0kts
06-Jan-20 21:35 33.932658 -118.399138 83 128ft 0kts
06-Jan-20 21:36 33.932658 -118.399138 83 128ft 0kts
06-Jan-20 21:37 33.933287 -118.398971 16 128ft 12kts
06-Jan-20 21:38 33.934902 -118.394676 83 128ft 17kts
06-Jan-20 21:39 33.935531 -118.388622 83 128ft 18kts
06-Jan-20 21:40 33.936386 -118.382868 15 128ft 8kts
06-Jan-20 21:41 33.936660 -118.382843 357 128ft 9kts
06-Jan-20 21:42 33.935310 -118.402597 264 338ft 96kts
06-Jan-20 21:43 33.932003 -118.435269 241 982ft 101kts
06-Jan-20 21:44 33.905410 -118.437758 172 1658ft 101kts
06-Jan-20 21:45 33.878088 -118.431244 148 2385ft 103kts
06-Jan-20 21:46 33.856199 -118.407114 137 2851ft 117kts
06-Jan-20 21:47 33.834378 -118.382673 138 3459ft 113kts
06-Jan-20 21:48 33.809322 -118.354725 138 3490ft 126kts
06-Jan-20 21:49 33.783478 -118.326103 139 3490ft 125kts
06-Jan-20 21:50 33.757839 -118.297771 139 3489ft 125kts
06-Jan-20 21:51 33.732109 -118.269407 139 3819ft 117kts
06-Jan-20 21:52 33.708294 -118.243200 139 4395ft 115kts
06-Jan-20 21:53 33.684889 -118.218289 139 5046ft 113kts
06-Jan-20 21:54 33.660800 -118.192064 138 5471ft 128kts
06-Jan-20 21:55 33.633799 -118.162422 137 5517ft 132kts
06-Jan-20 21:56 33.606651 -118.132606 137 5515ft 132kts
06-Jan-20 21:57 33.579124 -118.102901 144 5507ft 133kts
06-Jan-20 21:58 33.552359 -118.072909 133 5511ft 131kts
06-Jan-20 21:59 33.526808 -118.041637 133 5510ft 130kts
06-Jan-20 22:00 33.501397 -118.010635 133 5511ft 130kts
06-Jan-20 22:01 33.476167 -117.979755 133 5511ft 129kts
06-Jan-20 22:02 33.450971 -117.948917 133 5511ft 129kts
06-Jan-20 22:03 33.425818 -117.918297 133 5511ft 129kts
06-Jan-20 22:04 33.400650 -117.887626 133 5511ft 129kts
06-Jan-20 22:05 33.375488 -117.856920 133 5509ft 130kts
06-Jan-20 22:06 33.350154 -117.826015 133 5511ft 130kts
06-Jan-20 22:07 33.324844 -117.795255 134 5511ft 129kts
06-Jan-20 22:08 33.299552 -117.764627 133 5511ft 129kts
06-Jan-20 22:09 33.273253 -117.735333 138 5511ft 129kts
06-Jan-20 22:10 33.245878 -117.707328 138 5502ft 129kts
06-Jan-20 22:11 33.218544 -117.679430 138 5502ft 129kts
06-Jan-20 22:12 33.191156 -117.651508 138 5502ft 129kts
06-Jan-20 22:13 33.163796 -117.623641 138 5502ft 129kts
06-Jan-20 22:14 33.136397 -117.595759 138 5502ft 129kts
06-Jan-20 22:15 33.108968 -117.567882 138 5502ft 129kts
06-Jan-20 22:16 33.081475 -117.540081 138 5502ft 129kts
06-Jan-20 22:17 33.076747 -117.503930 65 5496ft 125kts
06-Jan-20 22:18 33.087947 -117.464280 71 5497ft 126kts
06-Jan-20 22:19 33.095810 -117.423387 77 5497ft 126kts
06-Jan-20 22:20 33.100474 -117.381772 80 5497ft 126kts
06-Jan-20 22:21 33.103786 -117.339865 83 5497ft 127kts
06-Jan-20 22:22 33.106577 -117.297805 83 5497ft 127kts
06-Jan-20 22:23 33.109413 -117.255806 83 5497ft 127kts
06-Jan-20 22:24 33.112185 -117.213811 84 5497ft 127kts
06-Jan-20 22:25 33.113460 -117.171544 88 5497ft 127kts
06-Jan-20 22:26 33.112458 -117.129277 89 5497ft 127kts
06-Jan-20 22:27 33.114682 -117.087134 83 5501ft 127kts
06-Jan-20 22:28 33.117045 -117.045210 83 5507ft 126kts
06-Jan-20 22:30 33.107952 -117.004363 105 5514ft 128kts
06-Jan-20 22:31 33.098017 -116.963966 80 5518ft 125kts
06-Jan-20 22:32 33.090209 -116.923905 107 5526ft 127kts
06-Jan-20 22:33 33.076176 -116.885182 113 5532ft 127kts
06-Jan-20 22:34 33.058909 -116.848113 118 5534ft 128kts
06-Jan-20 22:35 33.040219 -116.812070 118 5534ft 127kts
06-Jan-20 22:36 33.018158 -116.779108 134 5534ft 129kts
06-Jan-20 22:37 32.986917 -116.757835 159 5533ft 131kts
06-Jan-20 22:38 32.950572 -116.758049 182 5533ft 132kts
06-Jan-20 22:39 32.914671 -116.763829 222 5523ft 131kts
06-Jan-20 22:40 32.898389 -116.801914 233 5553ft 129kts
06-Jan-20 22:41 32.877140 -116.836410 234 5578ft 129kts
06-Jan-20 22:42 32.855373 -116.870609 233 5551ft 129kts
06-Jan-20 22:43 32.833326 -116.904413 233 5534ft 129kts
06-Jan-20 22:44 32.811925 -116.938797 234 5518ft 129kts
06-Jan-20 22:45 32.790591 -116.972795 231 5490ft 124kts
06-Jan-20 22:46 32.768562 -117.003639 230 4919ft 121kts
06-Jan-20 22:47 32.747363 -117.034682 229 4352ft 117kts
06-Jan-20 22:48 32.726182 -117.064563 230 3130ft 115kts
06-Jan-20 22:49 32.712994 -117.095206 262 2084ft 104kts
06-Jan-20 22:49 32.716564 -117.120287 286 1351ft 76kts
06-Jan-20 22:51 32.723267 -117.147622 285 735ft 69kts
06-Jan-20 22:52 32.728652 -117.169511 285 272ft 66kts
06-Jan-20 22:52 32.732710 -117.186163 286 20ft 40kts
06-Jan-20 22:54 32.733861 -117.186138 105 20ft 18kts
06-Jan-20 22:54 32.732605 -117.180934 105 20ft 20kts
06-Jan-20 22:56 32.732900 -117.179273 182 20ft 0kts

Navigation Log

Ident Type
Flight plan parsing failed, navigation log unavailable